sensor_id;sensor_type;location;lat;lon;timestamp;temperature;humidity
39849;DHT22;25518;47.878;15.914;2022-12-07T00:01:23;3.80;99.90
39849;DHT22;25518;47.878;15.914;2022-12-07T00:03:56;3.50;99.90
39849;DHT22;25518;47.878;15.914;2022-12-07T00:06:33;-0.50;99.90
39849;DHT22;25518;47.878;15.914;2022-12-07T00:09:06;5.70;99.90
39849;DHT22;25518;47.878;15.914;2022-12-07T00:11:38;3.80;99.90
39849;DHT22;25518;47.878;15.914;2022-12-07T00:14:15;2.10;99.90
39849;DHT22;25518;47.878;15.914;2022-12-07T00:16:49;-0.80;99.90
39849;DHT22;25518;47.878;15.914;2022-12-07T00:19:21;2.10;99.90
39849;DHT22;25518;47.878;15.914;2022-12-07T00:21:52;-1.40;99.90
39849;DHT22;25518;47.878;15.914;2022-12-07T00:24:23;0.20;99.90
39849;DHT22;25518;47.878;15.914;2022-12-07T00:26:54;0.00;99.90
39849;DHT22;25518;47.878;15.914;2022-12-07T00:29:25;0.70;99.90
39849;DHT22;25518;47.878;15.914;2022-12-07T00:31:56;0.80;99.90
39849;DHT22;25518;47.878;15.914;2022-12-07T00:34:27;2.40;99.90
39849;DHT22;25518;47.878;15.914;2022-12-07T00:36:59;1.30;99.90
39849;DHT22;25518;47.878;15.914;2022-12-07T00:39:30;1.20;99.90
39849;DHT22;25518;47.878;15.914;2022-12-07T00:42:01;2.40;99.90
39849;DHT22;25518;47.878;15.914;2022-12-07T00:44:32;1.30;99.90
39849;DHT22;25518;47.878;15.914;2022-12-07T00:47:03;2.20;99.90
39849;DHT22;25518;47.878;15.914;2022-12-07T00:49:35;-0.50;99.90
39849;DHT22;25518;47.878;15.914;2022-12-07T00:52:06;3.80;99.90
39849;DHT22;25518;47.878;15.914;2022-12-07T00:54:37;1.10;99.90
39849;DHT22;25518;47.878;15.914;2022-12-07T00:57:09;2.30;99.90
39849;DHT22;25518;47.878;15.914;2022-12-07T00:59:41;2.00;99.90
39849;DHT22;25518;47.878;15.914;2022-12-07T01:02:13;1.40;99.90
39849;DHT22;25518;47.878;15.914;2022-12-07T01:04:45;0.30;99.90
39849;DHT22;25518;47.878;15.914;2022-12-07T01:07:16;-0.20;99.90
39849;DHT22;25518;47.878;15.914;2022-12-07T01:09:47;-1.00;99.90
39849;DHT22;25518;47.878;15.914;2022-12-07T01:12:19;-0.10;99.90
39849;DHT22;25518;47.878;15.914;2022-12-07T01:14:50;-0.90;99.90
39849;DHT22;25518;47.878;15.914;2022-12-07T01:17:21;3.60;99.90
39849;DHT22;25518;47.878;15.914;2022-12-07T01:19:52;-0.20;99.90
39849;DHT22;25518;47.878;15.914;2022-12-07T01:22:24;2.90;99.90
39849;DHT22;25518;47.878;15.914;2022-12-07T01:24:55;2.50;99.90
39849;DHT22;25518;47.878;15.914;2022-12-07T01:27:27;0.10;99.90
39849;DHT22;25518;47.878;15.914;2022-12-07T01:29:59;5.70;99.90
39849;DHT22;25518;47.878;15.914;2022-12-07T01:32:31;1.10;99.90
39849;DHT22;25518;47.878;15.914;2022-12-07T01:35:03;0.90;99.90
39849;DHT22;25518;47.878;15.914;2022-12-07T01:37:36;2.10;99.90
39849;DHT22;25518;47.878;15.914;2022-12-07T01:40:09;3.70;99.90
39849;DHT22;25518;47.878;15.914;2022-12-07T01:42:41;1.20;99.90
39849;DHT22;25518;47.878;15.914;2022-12-07T01:45:37;0.80;99.90
39849;DHT22;25518;47.878;15.914;2022-12-07T01:48:11;3.80;99.90
39849;DHT22;25518;47.878;15.914;2022-12-07T01:50:45;2.40;99.90
39849;DHT22;25518;47.878;15.914;2022-12-07T01:53:20;2.70;99.90
39849;DHT22;25518;47.878;15.914;2022-12-07T01:55:53;4.60;99.90
39849;DHT22;25518;47.878;15.914;2022-12-07T01:58:26;0.10;99.90
39849;DHT22;25518;47.878;15.914;2022-12-07T02:00:58;4.20;99.90
39849;DHT22;25518;47.878;15.914;2022-12-07T02:03:37;1.00;99.90
39849;DHT22;25518;47.878;15.914;2022-12-07T02:06:12;4.50;99.90
39849;DHT22;25518;47.878;15.914;2022-12-07T02:08:44;3.40;99.90
39849;DHT22;25518;47.878;15.914;2022-12-07T02:11:18;1.30;99.90
39849;DHT22;25518;47.878;15.914;2022-12-07T02:13:49;2.80;99.90
39849;DHT22;25518;47.878;15.914;2022-12-07T02:19:47;3.90;99.90
39849;DHT22;25518;47.878;15.914;2022-12-07T02:30:49;2.10;99.90
39849;DHT22;25518;47.878;15.914;2022-12-07T02:33:28;1.60;99.90
39849;DHT22;25518;47.878;15.914;2022-12-07T02:36:11;0.00;99.90
39849;DHT22;25518;47.878;15.914;2022-12-07T02:38:48;3.90;99.90
39849;DHT22;25518;47.878;15.914;2022-12-07T02:41:29;0.20;99.90
39849;DHT22;25518;47.878;15.914;2022-12-07T02:44:11;2.80;99.90
39849;DHT22;25518;47.878;15.914;2022-12-07T02:47:04;-0.80;99.90
39849;DHT22;25518;47.878;15.914;2022-12-07T02:49:39;3.20;99.90
39849;DHT22;25518;47.878;15.914;2022-12-07T02:52:14;3.50;99.90
39849;DHT22;25518;47.878;15.914;2022-12-07T02:54:46;4.50;99.90
39849;DHT22;25518;47.878;15.914;2022-12-07T02:57:35;3.60;99.90
39849;DHT22;25518;47.878;15.914;2022-12-07T03:00:14;2.60;99.90
39849;DHT22;25518;47.878;15.914;2022-12-07T03:19:59;1.70;99.90
39849;DHT22;25518;47.878;15.914;2022-12-07T03:22:34;1.70;99.90
39849;DHT22;25518;47.878;15.914;2022-12-07T03:25:10;2.00;99.90
39849;DHT22;25518;47.878;15.914;2022-12-07T03:28:04;3.50;99.90
39849;DHT22;25518;47.878;15.914;2022-12-07T03:30:46;3.20;99.90
39849;DHT22;25518;47.878;15.914;2022-12-07T03:33:32;5.90;99.90
39849;DHT22;25518;47.878;15.914;2022-12-07T03:36:08;0.60;99.90
39849;DHT22;25518;47.878;15.914;2022-12-07T03:38:50;3.30;99.90
39849;DHT22;25518;47.878;15.914;2022-12-07T03:41:31;2.60;99.90
39849;DHT22;25518;47.878;15.914;2022-12-07T03:44:03;3.80;99.90
39849;DHT22;25518;47.878;15.914;2022-12-07T03:49:43;3.50;99.90
39849;DHT22;25518;47.878;15.914;2022-12-07T03:55:16;3.30;99.90
39849;DHT22;25518;47.878;15.914;2022-12-07T03:57:55;2.50;99.90
39849;DHT22;25518;47.878;15.914;2022-12-07T04:00:33;-0.30;99.90
39849;DHT22;25518;47.878;15.914;2022-12-07T04:03:05;3.90;99.90
39849;DHT22;25518;47.878;15.914;2022-12-07T04:05:36;3.10;99.90
39849;DHT22;25518;47.878;15.914;2022-12-07T04:08:07;4.80;99.90
39849;DHT22;25518;47.878;15.914;2022-12-07T04:10:39;4.50;99.90
39849;DHT22;25518;47.878;15.914;2022-12-07T04:13:12;5.50;99.90
39849;DHT22;25518;47.878;15.914;2022-12-07T04:15:43;3.30;99.90
39849;DHT22;25518;47.878;15.914;2022-12-07T04:18:16;2.00;99.90
39849;DHT22;25518;47.878;15.914;2022-12-07T04:20:48;6.50;99.90
39849;DHT22;25518;47.878;15.914;2022-12-07T04:23:19;4.30;99.90
39849;DHT22;25518;47.878;15.914;2022-12-07T04:25:51;5.40;99.90
39849;DHT22;25518;47.878;15.914;2022-12-07T04:28:23;3.70;99.90
39849;DHT22;25518;47.878;15.914;2022-12-07T04:30:56;3.50;99.90
39849;DHT22;25518;47.878;15.914;2022-12-07T04:33:28;4.20;99.90
39849;DHT22;25518;47.878;15.914;2022-12-07T04:36:06;3.50;99.90
39849;DHT22;25518;47.878;15.914;2022-12-07T04:38:41;4.50;99.90
39849;DHT22;25518;47.878;15.914;2022-12-07T04:41:14;3.00;99.90
39849;DHT22;25518;47.878;15.914;2022-12-07T04:43:50;3.30;99.90
39849;DHT22;25518;47.878;15.914;2022-12-07T04:46:32;4.60;99.90
39849;DHT22;25518;47.878;15.914;2022-12-07T04:49:05;3.60;99.90
39849;DHT22;25518;47.878;15.914;2022-12-07T04:51:39;3.60;99.90
39849;DHT22;25518;47.878;15.914;2022-12-07T04:54:17;5.40;99.90
39849;DHT22;25518;47.878;15.914;2022-12-07T04:56:48;4.70;99.90
39849;DHT22;25518;47.878;15.914;2022-12-07T04:59:20;1.40;99.90
39849;DHT22;25518;47.878;15.914;2022-12-07T05:01:51;3.40;99.90
39849;DHT22;25518;47.878;15.914;2022-12-07T05:04:23;2.10;99.90
39849;DHT22;25518;47.878;15.914;2022-12-07T05:06:55;3.80;99.90
39849;DHT22;25518;47.878;15.914;2022-12-07T05:09:26;3.50;99.90
39849;DHT22;25518;47.878;15.914;2022-12-07T05:11:57;5.80;99.90
39849;DHT22;25518;47.878;15.914;2022-12-07T05:14:28;3.40;99.90
39849;DHT22;25518;47.878;15.914;2022-12-07T05:16:59;2.60;99.90
39849;DHT22;25518;47.878;15.914;2022-12-07T05:19:30;1.00;99.90
39849;DHT22;25518;47.878;15.914;2022-12-07T05:22:01;1.30;99.90
39849;DHT22;25518;47.878;15.914;2022-12-07T05:24:33;1.30;99.90
39849;DHT22;25518;47.878;15.914;2022-12-07T05:27:10;3.50;99.90
39849;DHT22;25518;47.878;15.914;2022-12-07T05:29:41;3.30;99.90
39849;DHT22;25518;47.878;15.914;2022-12-07T05:32:13;1.30;99.90
39849;DHT22;25518;47.878;15.914;2022-12-07T05:34:46;1.40;99.90
39849;DHT22;25518;47.878;15.914;2022-12-07T05:37:19;3.40;99.90
39849;DHT22;25518;47.878;15.914;2022-12-07T05:39:50;3.40;99.90
39849;DHT22;25518;47.878;15.914;2022-12-07T05:42:24;3.60;99.90
39849;DHT22;25518;47.878;15.914;2022-12-07T05:44:55;1.20;99.90
39849;DHT22;25518;47.878;15.914;2022-12-07T05:47:27;1.90;99.90
39849;DHT22;25518;47.878;15.914;2022-12-07T05:49:59;3.20;99.90
39849;DHT22;25518;47.878;15.914;2022-12-07T05:52:32;5.20;99.90
39849;DHT22;25518;47.878;15.914;2022-12-07T05:55:05;4.80;99.90
39849;DHT22;25518;47.878;15.914;2022-12-07T05:57:37;2.80;99.90
39849;DHT22;25518;47.878;15.914;2022-12-07T06:00:09;2.60;99.90
39849;DHT22;25518;47.878;15.914;2022-12-07T06:02:40;4.30;99.90
39849;DHT22;25518;47.878;15.914;2022-12-07T06:05:16;2.70;99.90
39849;DHT22;25518;47.878;15.914;2022-12-07T06:07:51;3.60;99.90
39849;DHT22;25518;47.878;15.914;2022-12-07T06:10:32;2.50;99.90
39849;DHT22;25518;47.878;15.914;2022-12-07T07:02:58;3.10;99.90
39849;DHT22;25518;47.878;15.914;2022-12-07T07:06:24;2.90;99.90
39849;DHT22;25518;47.878;15.914;2022-12-07T07:13:10;2.10;99.90
39849;DHT22;25518;47.878;15.914;2022-12-07T07:16:33;3.20;99.90
39849;DHT22;25518;47.878;15.914;2022-12-07T07:19:15;3.10;99.90
39849;DHT22;25518;47.878;15.914;2022-12-07T07:22:01;2.40;99.90
39849;DHT22;25518;47.878;15.914;2022-12-07T07:25:00;2.40;99.90
39849;DHT22;25518;47.878;15.914;2022-12-07T07:27:31;3.80;99.90
39849;DHT22;25518;47.878;15.914;2022-12-07T07:30:03;2.10;99.90
39849;DHT22;25518;47.878;15.914;2022-12-07T07:32:35;3.40;99.90
39849;DHT22;25518;47.878;15.914;2022-12-07T07:35:06;3.50;99.90
39849;DHT22;25518;47.878;15.914;2022-12-07T07:37:37;2.90;99.90
39849;DHT22;25518;47.878;15.914;2022-12-07T07:40:09;1.60;99.90
39849;DHT22;25518;47.878;15.914;2022-12-07T07:42:41;2.50;99.90
39849;DHT22;25518;47.878;15.914;2022-12-07T07:45:12;1.40;99.90
39849;DHT22;25518;47.878;15.914;2022-12-07T07:47:43;-0.10;99.90
39849;DHT22;25518;47.878;15.914;2022-12-07T07:50:14;2.50;99.90
39849;DHT22;25518;47.878;15.914;2022-12-07T07:52:46;2.40;99.90
39849;DHT22;25518;47.878;15.914;2022-12-07T07:55:18;1.30;99.90
39849;DHT22;25518;47.878;15.914;2022-12-07T07:57:51;3.00;99.90
39849;DHT22;25518;47.878;15.914;2022-12-07T08:00:23;0.80;99.90
39849;DHT22;25518;47.878;15.914;2022-12-07T08:02:54;3.10;99.90
39849;DHT22;25518;47.878;15.914;2022-12-07T08:05:28;3.20;99.90
39849;DHT22;25518;47.878;15.914;2022-12-07T08:07:59;3.50;99.90
39849;DHT22;25518;47.878;15.914;2022-12-07T08:10:31;3.10;99.90
39849;DHT22;25518;47.878;15.914;2022-12-07T08:13:02;1.50;99.90
39849;DHT22;25518;47.878;15.914;2022-12-07T08:15:43;3.50;99.90
39849;DHT22;25518;47.878;15.914;2022-12-07T08:18:15;4.80;99.90
39849;DHT22;25518;47.878;15.914;2022-12-07T08:20:46;3.60;99.90
39849;DHT22;25518;47.878;15.914;2022-12-07T08:23:18;3.10;99.90
39849;DHT22;25518;47.878;15.914;2022-12-07T08:25:49;2.50;99.90
39849;DHT22;25518;47.878;15.914;2022-12-07T08:28:20;2.10;99.90
39849;DHT22;25518;47.878;15.914;2022-12-07T08:30:51;1.40;99.90
39849;DHT22;25518;47.878;15.914;2022-12-07T08:33:22;3.10;99.90
39849;DHT22;25518;47.878;15.914;2022-12-07T08:35:53;3.10;99.90
39849;DHT22;25518;47.878;15.914;2022-12-07T08:38:24;3.10;99.90
39849;DHT22;25518;47.878;15.914;2022-12-07T08:40:57;3.00;99.90
39849;DHT22;25518;47.878;15.914;2022-12-07T08:43:28;3.00;99.90
39849;DHT22;25518;47.878;15.914;2022-12-07T08:46:20;3.00;99.90
39849;DHT22;25518;47.878;15.914;2022-12-07T08:48:57;3.00;99.90
39849;DHT22;25518;47.878;15.914;2022-12-07T08:51:30;3.00;99.90
39849;DHT22;25518;47.878;15.914;2022-12-07T08:54:04;3.00;99.90
39849;DHT22;25518;47.878;15.914;2022-12-07T08:56:37;3.10;99.90
39849;DHT22;25518;47.878;15.914;2022-12-07T08:59:09;3.10;99.90
39849;DHT22;25518;47.878;15.914;2022-12-07T09:01:40;3.10;99.90
39849;DHT22;25518;47.878;15.914;2022-12-07T09:04:11;3.20;99.90
39849;DHT22;25518;47.878;15.914;2022-12-07T09:06:42;3.30;99.90
39849;DHT22;25518;47.878;15.914;2022-12-07T09:09:14;3.30;99.90
39849;DHT22;25518;47.878;15.914;2022-12-07T09:11:45;3.30;99.90
39849;DHT22;25518;47.878;15.914;2022-12-07T09:14:16;3.30;99.90
39849;DHT22;25518;47.878;15.914;2022-12-07T09:16:47;3.30;99.90
39849;DHT22;25518;47.878;15.914;2022-12-07T09:19:18;3.30;99.90
39849;DHT22;25518;47.878;15.914;2022-12-07T09:21:49;3.30;99.90
39849;DHT22;25518;47.878;15.914;2022-12-07T09:24:21;3.20;99.90
39849;DHT22;25518;47.878;15.914;2022-12-07T09:26:53;3.30;99.90
39849;DHT22;25518;47.878;15.914;2022-12-07T09:29:24;3.30;99.90
39849;DHT22;25518;47.878;15.914;2022-12-07T09:31:55;3.30;99.90
39849;DHT22;25518;47.878;15.914;2022-12-07T09:34:26;3.30;99.90
39849;DHT22;25518;47.878;15.914;2022-12-07T09:36:57;3.40;99.90
39849;DHT22;25518;47.878;15.914;2022-12-07T09:39:29;3.40;99.90
39849;DHT22;25518;47.878;15.914;2022-12-07T09:42:03;3.40;99.90
39849;DHT22;25518;47.878;15.914;2022-12-07T09:44:35;3.50;99.90
39849;DHT22;25518;47.878;15.914;2022-12-07T09:47:09;3.50;99.90
39849;DHT22;25518;47.878;15.914;2022-12-07T09:49:40;3.50;99.90
39849;DHT22;25518;47.878;15.914;2022-12-07T09:52:17;3.50;99.90
39849;DHT22;25518;47.878;15.914;2022-12-07T09:54:50;3.50;99.90
39849;DHT22;25518;47.878;15.914;2022-12-07T09:57:28;3.60;99.90
39849;DHT22;25518;47.878;15.914;2022-12-07T10:00:06;3.50;99.90
39849;DHT22;25518;47.878;15.914;2022-12-07T10:02:42;3.60;99.90
39849;DHT22;25518;47.878;15.914;2022-12-07T10:05:18;3.50;99.90
39849;DHT22;25518;47.878;15.914;2022-12-07T10:07:51;3.50;99.90
39849;DHT22;25518;47.878;15.914;2022-12-07T10:10:30;3.60;99.90
39849;DHT22;25518;47.878;15.914;2022-12-07T10:13:05;3.70;99.90
39849;DHT22;25518;47.878;15.914;2022-12-07T10:23:36;3.60;99.90
39849;DHT22;25518;47.878;15.914;2022-12-07T10:26:30;3.60;99.90
39849;DHT22;25518;47.878;15.914;2022-12-07T10:29:21;3.60;99.90
39849;DHT22;25518;47.878;15.914;2022-12-07T10:34:31;3.50;99.90
39849;DHT22;25518;47.878;15.914;2022-12-07T10:37:20;3.40;99.90
39849;DHT22;25518;47.878;15.914;2022-12-07T10:39:53;3.60;99.90
39849;DHT22;25518;47.878;15.914;2022-12-07T10:45:16;3.30;99.90
39849;DHT22;25518;47.878;15.914;2022-12-07T10:47:49;3.20;99.90
39849;DHT22;25518;47.878;15.914;2022-12-07T10:51:18;3.10;99.90
39849;DHT22;25518;47.878;15.914;2022-12-07T10:54:03;3.10;99.90
39849;DHT22;25518;47.878;15.914;2022-12-07T10:59:57;3.30;99.90
39849;DHT22;25518;47.878;15.914;2022-12-07T11:02:45;3.40;99.90
39849;DHT22;25518;47.878;15.914;2022-12-07T11:05:48;3.50;99.90
39849;DHT22;25518;47.878;15.914;2022-12-07T11:22:36;4.40;99.90
39849;DHT22;25518;47.878;15.914;2022-12-07T11:28:04;4.50;99.90
39849;DHT22;25518;47.878;15.914;2022-12-07T11:33:26;4.50;99.90
39849;DHT22;25518;47.878;15.914;2022-12-07T11:36:11;4.40;99.90
39849;DHT22;25518;47.878;15.914;2022-12-07T11:41:25;4.60;99.90
39849;DHT22;25518;47.878;15.914;2022-12-07T11:44:06;4.60;99.90
39849;DHT22;25518;47.878;15.914;2022-12-07T11:49:39;4.80;99.90
39849;DHT22;25518;47.878;15.914;2022-12-07T11:52:49;4.80;99.90
39849;DHT22;25518;47.878;15.914;2022-12-07T11:55:26;4.80;99.90
39849;DHT22;25518;47.878;15.914;2022-12-07T11:58:07;4.60;99.90
39849;DHT22;25518;47.878;15.914;2022-12-07T12:00:43;4.30;99.90
39849;DHT22;25518;47.878;15.914;2022-12-07T12:03:22;4.10;99.90
39849;DHT22;25518;47.878;15.914;2022-12-07T12:06:00;4.20;99.90
39849;DHT22;25518;47.878;15.914;2022-12-07T12:08:36;4.10;99.90
39849;DHT22;25518;47.878;15.914;2022-12-07T12:20:37;3.80;99.90
39849;DHT22;25518;47.878;15.914;2022-12-07T12:33:55;4.10;99.90
39849;DHT22;25518;47.878;15.914;2022-12-07T12:36:44;4.20;99.90
39849;DHT22;25518;47.878;15.914;2022-12-07T12:39:17;4.30;99.90
39849;DHT22;25518;47.878;15.914;2022-12-07T12:46:59;4.30;99.90
39849;DHT22;25518;47.878;15.914;2022-12-07T12:49:36;4.30;99.90
39849;DHT22;25518;47.878;15.914;2022-12-07T12:57:34;4.40;99.90
39849;DHT22;25518;47.878;15.914;2022-12-07T13:00:23;4.40;99.90
39849;DHT22;25518;47.878;15.914;2022-12-07T13:02:59;4.30;99.90
39849;DHT22;25518;47.878;15.914;2022-12-07T13:05:31;4.20;99.90
39849;DHT22;25518;47.878;15.914;2022-12-07T13:08:15;4.10;99.90
39849;DHT22;25518;47.878;15.914;2022-12-07T13:10:48;4.10;99.90
39849;DHT22;25518;47.878;15.914;2022-12-07T13:18:42;3.90;99.90
39849;DHT22;25518;47.878;15.914;2022-12-07T13:29:17;3.90;99.90
39849;DHT22;25518;47.878;15.914;2022-12-07T13:31:54;3.70;99.90
39849;DHT22;25518;47.878;15.914;2022-12-07T13:34:41;3.60;99.90
39849;DHT22;25518;47.878;15.914;2022-12-07T13:37:33;3.70;99.90
39849;DHT22;25518;47.878;15.914;2022-12-07T13:40:23;3.60;99.90
39849;DHT22;25518;47.878;15.914;2022-12-07T13:43:02;3.40;99.90
39849;DHT22;25518;47.878;15.914;2022-12-07T13:45:33;3.40;99.90
39849;DHT22;25518;47.878;15.914;2022-12-07T13:48:43;3.40;99.90
39849;DHT22;25518;47.878;15.914;2022-12-07T13:51:19;3.40;99.90
39849;DHT22;25518;47.878;15.914;2022-12-07T13:53:55;3.30;99.90
39849;DHT22;25518;47.878;15.914;2022-12-07T13:56:32;3.20;99.90
39849;DHT22;25518;47.878;15.914;2022-12-07T13:59:22;3.20;99.90
39849;DHT22;25518;47.878;15.914;2022-12-07T14:01:54;3.00;99.90
39849;DHT22;25518;47.878;15.914;2022-12-07T14:10:00;2.90;99.90
39849;DHT22;25518;47.878;15.914;2022-12-07T14:12:32;2.90;99.90
39849;DHT22;25518;47.878;15.914;2022-12-07T14:15:19;2.90;99.90
39849;DHT22;25518;47.878;15.914;2022-12-07T14:17:52;2.80;99.90
39849;DHT22;25518;47.878;15.914;2022-12-07T14:20:40;2.80;99.90
39849;DHT22;25518;47.878;15.914;2022-12-07T14:23:27;2.60;99.90
39849;DHT22;25518;47.878;15.914;2022-12-07T14:26:07;2.50;99.90
39849;DHT22;25518;47.878;15.914;2022-12-07T14:28:39;2.40;99.90
39849;DHT22;25518;47.878;15.914;2022-12-07T14:31:13;2.50;99.90
39849;DHT22;25518;47.878;15.914;2022-12-07T14:33:45;2.40;99.90
39849;DHT22;25518;47.878;15.914;2022-12-07T14:36:16;2.30;99.90
39849;DHT22;25518;47.878;15.914;2022-12-07T14:38:47;2.20;99.90
39849;DHT22;25518;47.878;15.914;2022-12-07T14:41:22;2.10;99.90
39849;DHT22;25518;47.878;15.914;2022-12-07T14:44:13;2.20;99.90
39849;DHT22;25518;47.878;15.914;2022-12-07T14:46:44;2.10;99.90
39849;DHT22;25518;47.878;15.914;2022-12-07T14:49:16;2.10;99.90
39849;DHT22;25518;47.878;15.914;2022-12-07T14:51:47;2.20;99.90
39849;DHT22;25518;47.878;15.914;2022-12-07T14:54:20;1.90;99.90
39849;DHT22;25518;47.878;15.914;2022-12-07T14:56:51;1.90;99.90
39849;DHT22;25518;47.878;15.914;2022-12-07T14:59:22;1.90;99.90
39849;DHT22;25518;47.878;15.914;2022-12-07T15:01:53;1.80;99.90
39849;DHT22;25518;47.878;15.914;2022-12-07T15:04:24;0.50;99.90
39849;DHT22;25518;47.878;15.914;2022-12-07T15:06:58;1.40;99.90
39849;DHT22;25518;47.878;15.914;2022-12-07T15:09:29;1.50;99.90
39849;DHT22;25518;47.878;15.914;2022-12-07T15:12:00;1.50;99.90
39849;DHT22;25518;47.878;15.914;2022-12-07T15:14:31;1.30;99.90
39849;DHT22;25518;47.878;15.914;2022-12-07T15:17:02;1.30;99.90
39849;DHT22;25518;47.878;15.914;2022-12-07T15:19:33;1.20;99.90
39849;DHT22;25518;47.878;15.914;2022-12-07T15:22:04;1.20;99.90
39849;DHT22;25518;47.878;15.914;2022-12-07T15:24:35;0.80;99.90
39849;DHT22;25518;47.878;15.914;2022-12-07T15:27:06;0.70;99.90
39849;DHT22;25518;47.878;15.914;2022-12-07T15:29:37;0.80;99.90
39849;DHT22;25518;47.878;15.914;2022-12-07T15:32:08;0.70;99.90
39849;DHT22;25518;47.878;15.914;2022-12-07T15:34:39;0.80;99.90
39849;DHT22;25518;47.878;15.914;2022-12-07T15:37:09;0.80;99.90
39849;DHT22;25518;47.878;15.914;2022-12-07T15:39:40;0.80;99.90
39849;DHT22;25518;47.878;15.914;2022-12-07T15:42:11;0.70;99.90
39849;DHT22;25518;47.878;15.914;2022-12-07T15:44:42;0.60;99.90
39849;DHT22;25518;47.878;15.914;2022-12-07T15:50:10;0.60;99.90
39849;DHT22;25518;47.878;15.914;2022-12-07T15:52:42;0.60;99.90
39849;DHT22;25518;47.878;15.914;2022-12-07T15:55:14;0.60;99.90
39849;DHT22;25518;47.878;15.914;2022-12-07T15:57:45;0.40;99.90
39849;DHT22;25518;47.878;15.914;2022-12-07T16:00:16;0.20;99.90
39849;DHT22;25518;47.878;15.914;2022-12-07T16:02:47;0.40;99.90
39849;DHT22;25518;47.878;15.914;2022-12-07T16:05:18;-0.10;99.90
39849;DHT22;25518;47.878;15.914;2022-12-07T16:07:49;0.40;99.90
39849;DHT22;25518;47.878;15.914;2022-12-07T16:10:20;0.50;99.90
39849;DHT22;25518;47.878;15.914;2022-12-07T16:12:51;0.50;99.90
39849;DHT22;25518;47.878;15.914;2022-12-07T16:15:22;0.40;99.90
39849;DHT22;25518;47.878;15.914;2022-12-07T16:17:55;0.40;99.90
39849;DHT22;25518;47.878;15.914;2022-12-07T16:20:26;-1.10;99.90
39849;DHT22;25518;47.878;15.914;2022-12-07T16:22:57;0.40;99.90
39849;DHT22;25518;47.878;15.914;2022-12-07T16:25:28;0.30;99.90
39849;DHT22;25518;47.878;15.914;2022-12-07T16:27:59;0.10;99.90
39849;DHT22;25518;47.878;15.914;2022-12-07T16:30:30;0.30;99.90
39849;DHT22;25518;47.878;15.914;2022-12-07T16:33:01;0.20;99.90
39849;DHT22;25518;47.878;15.914;2022-12-07T16:35:32;0.10;99.90
39849;DHT22;25518;47.878;15.914;2022-12-07T16:38:03;-1.80;99.90
39849;DHT22;25518;47.878;15.914;2022-12-07T16:40:34;0.00;99.90
39849;DHT22;25518;47.878;15.914;2022-12-07T16:43:05;-0.10;99.90
39849;DHT22;25518;47.878;15.914;2022-12-07T16:45:37;-1.90;99.90
39849;DHT22;25518;47.878;15.914;2022-12-07T16:48:08;-0.10;99.90
39849;DHT22;25518;47.878;15.914;2022-12-07T16:50:40;-0.10;99.90
39849;DHT22;25518;47.878;15.914;2022-12-07T16:53:13;-0.10;99.90
39849;DHT22;25518;47.878;15.914;2022-12-07T16:55:45;-0.10;99.90
39849;DHT22;25518;47.878;15.914;2022-12-07T16:58:17;-0.10;99.90
39849;DHT22;25518;47.878;15.914;2022-12-07T17:00:48;0.00;99.90
39849;DHT22;25518;47.878;15.914;2022-12-07T17:03:19;0.10;99.90
39849;DHT22;25518;47.878;15.914;2022-12-07T17:05:50;-0.30;99.90
39849;DHT22;25518;47.878;15.914;2022-12-07T17:08:21;-0.30;99.90
39849;DHT22;25518;47.878;15.914;2022-12-07T17:10:52;-0.30;99.90
39849;DHT22;25518;47.878;15.914;2022-12-07T17:13:23;-0.30;99.90
39849;DHT22;25518;47.878;15.914;2022-12-07T17:16:14;-0.40;99.90
39849;DHT22;25518;47.878;15.914;2022-12-07T17:18:45;-0.40;99.90
39849;DHT22;25518;47.878;15.914;2022-12-07T17:21:16;-1.30;99.90
39849;DHT22;25518;47.878;15.914;2022-12-07T17:23:47;-1.50;99.90
39849;DHT22;25518;47.878;15.914;2022-12-07T17:26:21;-0.40;99.90
39849;DHT22;25518;47.878;15.914;2022-12-07T17:28:53;-0.40;99.90
39849;DHT22;25518;47.878;15.914;2022-12-07T17:31:24;-0.40;99.90
39849;DHT22;25518;47.878;15.914;2022-12-07T17:33:55;-0.30;99.90
39849;DHT22;25518;47.878;15.914;2022-12-07T17:36:28;-0.50;99.90
39849;DHT22;25518;47.878;15.914;2022-12-07T17:38:59;-0.70;99.90
39849;DHT22;25518;47.878;15.914;2022-12-07T17:41:30;-0.80;99.90
39849;DHT22;25518;47.878;15.914;2022-12-07T17:44:22;-0.70;99.90
39849;DHT22;25518;47.878;15.914;2022-12-07T17:46:54;-0.50;99.90
39849;DHT22;25518;47.878;15.914;2022-12-07T17:49:27;-0.40;99.90
39849;DHT22;25518;47.878;15.914;2022-12-07T17:51:58;-0.50;99.90
39849;DHT22;25518;47.878;15.914;2022-12-07T17:54:49;-0.30;99.90
39849;DHT22;25518;47.878;15.914;2022-12-07T17:57:20;-0.40;99.90
39849;DHT22;25518;47.878;15.914;2022-12-07T17:59:51;-0.50;99.90
39849;DHT22;25518;47.878;15.914;2022-12-07T18:02:22;-0.70;99.90
39849;DHT22;25518;47.878;15.914;2022-12-07T18:04:53;-0.50;99.90
39849;DHT22;25518;47.878;15.914;2022-12-07T18:07:24;-0.40;99.90
39849;DHT22;25518;47.878;15.914;2022-12-07T18:09:55;-0.40;99.90
39849;DHT22;25518;47.878;15.914;2022-12-07T18:12:27;-1.60;99.90
39849;DHT22;25518;47.878;15.914;2022-12-07T18:14:58;-0.30;99.90
39849;DHT22;25518;47.878;15.914;2022-12-07T18:17:29;-0.80;99.90
39849;DHT22;25518;47.878;15.914;2022-12-07T18:20:00;-0.30;99.90
39849;DHT22;25518;47.878;15.914;2022-12-07T18:22:31;-0.20;99.90
39849;DHT22;25518;47.878;15.914;2022-12-07T18:25:02;-0.30;99.90
39849;DHT22;25518;47.878;15.914;2022-12-07T18:27:33;-0.40;99.90
39849;DHT22;25518;47.878;15.914;2022-12-07T18:30:04;-0.50;99.90
39849;DHT22;25518;47.878;15.914;2022-12-07T18:32:36;-0.40;99.90
39849;DHT22;25518;47.878;15.914;2022-12-07T18:35:07;-0.50;99.90
39849;DHT22;25518;47.878;15.914;2022-12-07T18:37:39;-0.40;99.90
39849;DHT22;25518;47.878;15.914;2022-12-07T18:40:11;-0.30;99.90
39849;DHT22;25518;47.878;15.914;2022-12-07T18:42:42;-2.30;99.90
39849;DHT22;25518;47.878;15.914;2022-12-07T18:45:13;-0.80;99.90
39849;DHT22;25518;47.878;15.914;2022-12-07T18:47:44;-1.60;99.90
39849;DHT22;25518;47.878;15.914;2022-12-07T18:50:15;-1.50;99.90
39849;DHT22;25518;47.878;15.914;2022-12-07T18:52:46;-1.30;99.90
39849;DHT22;25518;47.878;15.914;2022-12-07T18:55:17;-2.70;99.90
39849;DHT22;25518;47.878;15.914;2022-12-07T18:57:48;-0.60;99.90
39849;DHT22;25518;47.878;15.914;2022-12-07T19:00:20;-0.20;99.90
39849;DHT22;25518;47.878;15.914;2022-12-07T19:02:52;-0.70;99.90
39849;DHT22;25518;47.878;15.914;2022-12-07T19:05:24;-0.80;99.90
39849;DHT22;25518;47.878;15.914;2022-12-07T19:07:55;-0.80;99.90
39849;DHT22;25518;47.878;15.914;2022-12-07T19:10:26;-0.80;99.90
39849;DHT22;25518;47.878;15.914;2022-12-07T19:12:57;-0.80;99.90
39849;DHT22;25518;47.878;15.914;2022-12-07T19:15:28;-0.80;99.90
39849;DHT22;25518;47.878;15.914;2022-12-07T19:17:58;-0.80;99.90